ADDS METAR Data INFO
IDs: Format: Raw Decoded Include TAF

Data at: 0626 UTC 15 Dec 2017

KW96 150615Z AUTO 00000KT 10SM CLR 00/M07 A3009 RMK AO1 T00001073
KW96 150555Z AUTO 06003KT 10SM CLR 00/M07 A3010 RMK AO1 T00001071 10027 21007
KW96 150535Z AUTO 07003KT 10SM CLR 00/M07 A3011 RMK AO1 T00001067
KW96 150515Z AUTO 00000KT 10SM CLR 00/M07 A3010 RMK AO1 T00001067
KW96 150455Z AUTO 00000KT 10SM CLR 00/M07 A3010 RMK AO1 T00001069 400951007
KW96 150435Z AUTO 00000KT 10SM CLR 00/M07 A3010 RMK AO1 T10011067
KW96 150415Z AUTO 00000KT 10SM CLR 00/M07 A3010 RMK AO1 T10021066
KW96 150355Z AUTO 00000KT 10SM CLR 00/M07 A3010 RMK AO1 T10021068
KW96 150335Z AUTO 06003KT 10SM CLR 00/M07 A3009 RMK AO1 T00001066
KW96 150315Z AUTO 00000KT 10SM CLR 00/M07 A3009 RMK AO1 T00021067
KW96 150255Z AUTO 00000KT 10SM CLR 01/M07 A3008 RMK AO1 T00061066
KW96 150235Z AUTO 00000KT 10SM CLR 01/M06 A3008 RMK AO1 T00071065
KW96 150200Z AUTO 00000KT 10SM CLR 01/M06 A3007 RMK AO1 T00091060
KW96 150135Z AUTO 00000KT 10SM CLR 02/M06 A3006 RMK AO1 T00161065
KW96 150115Z AUTO 08003KT 10SM CLR 02/M06 A3005 RMK AO1 T00201065
KW96 150055Z AUTO 00000KT 10SM CLR 02/M06 A3004 RMK AO1 T00221065
KW96 150035Z AUTO 00000KT 10SM CLR 02/M06 A3003 RMK AO1 T00241063
KW96 150015Z AUTO 06003KT 10SM CLR 03/M06 A3002 RMK AO1 T00271062
KW96 142355Z AUTO 07003KT 10SM CLR 03/M06 A3001 RMK AO1 T00261060 10094 20025
KW96 142335Z AUTO 00000KT 10SM CLR 03/M06 A2999 RMK AO1 T00301059
KW96 142315Z AUTO 00000KT 10SM CLR 03/M06 A2999 RMK AO1 T00291058
KW96 142255Z AUTO 00000KT 10SM CLR 04/M06 A2998 RMK AO1 T00351059
KW96 142235Z AUTO 35003KT 10SM CLR 04/M06 A2996 RMK AO1 T00381060
KW96 142215Z AUTO 36004KT 10SM CLR 04/M06 A2996 RMK AO1 T00431056
KW96 142155Z AUTO 01003KT 10SM CLR 05/M05 A2994 RMK AO1 T00501047
KW96 142135Z AUTO 01005KT 10SM CLR 06/M04 A2993 RMK AO1 T00571043
KW96 142115Z AUTO 02009KT 10SM CLR 07/M04 A2991 RMK AO1 T00651043
KW96 142055Z AUTO 05007KT 10SM CLR 08/M05 A2990 RMK AO1 T00781046
KW96 142035Z AUTO 01006G17KT 10SM SCT065 09/M04 A2988 RMK AO1 T00851043
KW96 142015Z AUTO 02004KT 10SM CLR 09/M04 A2987 RMK AO1 T00851042
KW96 141955Z AUTO 32004KT 10SM CLR 09/M04 A2987 RMK AO1 T00891045
KW96 141935Z AUTO 01004KT 10SM SCT060 09/M04 A2985 RMK AO1 T00891045
KW96 141915Z AUTO 34006KT 10SM CLR 09/M04 A2986 RMK AO1 T00911043
KW96 141855Z AUTO 35008KT 10SM CLR 09/M04 A2985 RMK AO1 T00931040
KW96 141835Z AUTO 01007KT 350V050 10SM CLR 09/M04 A2984 RMK AO1 T00891040
KW96 141815Z AUTO 34005KT 10SM CLR 09/M04 A2983 RMK AO1 T00901041
KW96 141755Z AUTO 32008KT 280V360 10SM CLR 08/M04 A2982 RMK AO1 T00841041 10095 20025
KW96 141735Z AUTO 31007G14KT 10SM CLR 09/M04 A2982 RMK AO1 T00851045
KW96 141715Z AUTO 32009G15KT 10SM CLR 09/M04 A2982 RMK AO1 T00861044
KW96 141655Z AUTO 30010KT 10SM CLR 09/M04 A2981 RMK AO1 T00931043
KW96 141635Z AUTO 28008KT 250V310 10SM CLR 09/M04 A2982 RMK AO1 T00871042
KW96 141615Z AUTO 30010G15KT 10SM CLR 08/M04 A2982 RMK AO1 T00811044
KW96 141555Z AUTO 30008G15KT 10SM CLR 08/M04 A2981 RMK AO1 T00751043
KW96 141535Z AUTO 29008KT 10SM BKN070 07/M05 A2980 RMK AO1 T00671047
KW96 141515Z AUTO 28004KT 10SM OVC080 05/M05 A2979 RMK AO1 T00531051
KW96 141455Z AUTO 27004KT 10SM OVC080 05/M05 A2978 RMK AO1 T00471055
KW96 141435Z AUTO 24004KT 10SM OVC080 05/M06 A2975 RMK AO1 T00461056
KW96 141415Z AUTO 24008KT 10SM OVC080 04/M06 A2974 RMK AO1 T00411058
KW96 141355Z AUTO 25005KT 10SM OVC080 04/M06 A2972 RMK AO1 T00391060
KW96 141335Z AUTO 23004KT 10SM OVC080 04/M06 A2970 RMK AO1 T00361061
KW96 141315Z AUTO 22005KT 10SM OVC080 03/M06 A2969 RMK AO1 T00331063
KW96 141255Z AUTO 22006KT 10SM BKN080 03/M06 A2967 RMK AO1 T00301065
KW96 141235Z AUTO 23005KT 10SM CLR 03/M07 A2966 RMK AO1 T00271066
KW96 141215Z AUTO 22006KT 10SM CLR 03/M07 A2965 RMK AO1 T00261067
KW96 141155Z AUTO 21007G15KT 10SM CLR 03/M07 A2964 RMK AO1 T00261069 10026 20019
KW96 141135Z AUTO 22007KT 10SM SCT080 02/M07 A2964 RMK AO1 T00231068
KW96 141115Z AUTO 22007KT 190V250 10SM BKN080 02/M07 A2964 RMK AO1 T00221069
KW96 141055Z AUTO 22007KT 190V250 10SM CLR 02/M07 A2963 RMK AO1 T00211070
KW96 141035Z AUTO 21007KT 10SM CLR 02/M07 A2962 RMK AO1 T00201068
KW96 141015Z AUTO 21006KT 10SM CLR 02/M07 A2961 RMK AO1 T00211068
KW96 140955Z AUTO 22006KT 10SM CLR 02/M07 A2960 RMK AO1 T00201070
KW96 140935Z AUTO 19007KT 150V220 10SM CLR 02/M07 A2959 RMK AO1 T00201070
KW96 140915Z AUTO 20006KT 10SM CLR 02/M07 A2959 RMK AO1 T00201071
KW96 140855Z AUTO 20006KT 10SM CLR 02/M07 A2959 RMK AO1 T00211073
KW96 140835Z AUTO 22007KT 10SM CLR 02/M07 A2959 RMK AO1 T00211072
KW96 140815Z AUTO 20007KT 10SM SCT080 02/M07 A2960 RMK AO1 T00221073
KW96 140755Z AUTO 21007KT 10SM BKN080 02/M07 A2961 RMK AO1 T00231075
KW96 140735Z AUTO 20006KT 10SM SCT080 02/M08 A2961 RMK AO1 T00201076
KW96 140715Z AUTO 20005KT 10SM CLR 02/M08 A2960 RMK AO1 T00191077
KW96 140655Z AUTO 19006KT 10SM CLR 02/M08 A2961 RMK AO1 T00201080
KW96 140635Z AUTO 20008KT 10SM CLR 02/M08 A2961 RMK AO1 T00211082
KW96 140615Z AUTO 19007G15KT 10SM CLR 02/M08 A2962 RMK AO1 T00231084
KW96 140555Z AUTO 20008G17KT 170V230 10SM SCT070 03/M09 A2963 RMK AO1 T00271086 10030 20005
KW96 140535Z AUTO 20007KT 150V250 10SM BKN070 03/M09 A2964 RMK AO1 T00281087
KW96 140515Z AUTO 17007KT 10SM BKN070 BKN080 03/M09 A2965 RMK AO1 T00261088
KW96 140455Z AUTO 16005KT 10SM SCT090 02/M09 A2966 RMK AO1 T00201091 400201082
KW96 140435Z AUTO 19006KT 10SM CLR 02/M09 A2967 RMK AO1 T00171095
KW96 140415Z AUTO 18007KT 10SM CLR 02/M10 A2967 RMK AO1 T00171096
KW96 140355Z AUTO 18005KT 10SM CLR 02/M10 A2969 RMK AO1 T00151097
KW96 140335Z AUTO 18007KT 10SM SCT120 02/M10 A2969 RMK AO1 T00161100
KW96 140315Z AUTO 17008KT 140V200 10SM OVC120 02/M10 A2970 RMK AO1 T00181101
KW96 140255Z AUTO 18006KT 10SM BKN120 02/M10 A2970 RMK AO1 T00201103
KW96 140235Z AUTO 19007G15KT 160V220 10SM SCT075 SCT100 BKN120 02/M11 A2969 RMK AO1 T00161106
KW96 140215Z AUTO 19009G15KT 170V230 10SM SCT048 SCT075 OVC110 01/M11 A2972 RMK AO1 T00121107
KW96 140155Z AUTO 15008KT 120V180 10SM SCT048 OVC065 01/M10 A2973 RMK AO1 T00071102
KW96 140135Z AUTO 17007KT 140V200 10SM BKN065 OVC080 01/M11 A2976 RMK AO1 T00071108
KW96 140115Z AUTO 19007KT 10SM OVC080 01/M11 A2977 RMK AO1 T00071111
KW96 140055Z AUTO 19007KT 10SM OVC090 01/M11 A2977 RMK AO1 T00071112
KW96 140035Z AUTO 21004KT 10SM OVC090 01/M11 A2977 RMK AO1 T00071113
KW96 140015Z AUTO 19006KT 10SM OVC100 01/M11 A2977 RMK AO1 T00061114
KW96 132355Z AUTO 19006KT 10SM SCT100 01/M11 A2978 RMK AO1 T00051114 10012 21001
KW96 132335Z AUTO 19007KT 10SM CLR 00/M11 A2978 RMK AO1 T00011112
KW96 132315Z AUTO 23003KT 10SM CLR 00/M11 A2978 RMK AO1 T00001113
KW96 132255Z AUTO 19007KT 10SM CLR 00/M12 A2979 RMK AO1 T00021117
KW96 132235Z AUTO 21003KT 10SM SCT120 01/M12 A2980 RMK AO1 T00051124
KW96 132215Z AUTO 19007KT 10SM SCT120 01/M13 A2981 RMK AO1 T00071126
KW96 132155Z AUTO 20005KT 10SM CLR 01/M13 A2982 RMK AO1 T00071129
KW96 132135Z AUTO 19007KT 10SM CLR 01/M13 A2981 RMK AO1 T00081130
KW96 132115Z AUTO 26003KT 10SM CLR 01/M13 A2981 RMK AO1 T00081131
KW96 132055Z AUTO 23003KT 10SM CLR 01/M13 A2981 RMK AO1 T00101131
KW96 132035Z AUTO 26007KT 10SM CLR 01/M13 A2981 RMK AO1 T00071132
KW96 132015Z AUTO 20006KT 10SM CLR 01/M14 A2983 RMK AO1 T00101136
KW96 131955Z AUTO 26007KT 230V290 10SM CLR 01/M14 A2983 RMK AO1 T00091137
KW96 131935Z AUTO 25004KT 10SM CLR 01/M14 A2983 RMK AO1 T00101137
KW96 131915Z AUTO 25014G20KT 220V280 10SM CLR 01/M14 A2983 RMK AO1 T00111138
KW96 131855Z AUTO 27012G17KT 10SM CLR 01/M14 A2983 RMK AO1 T00111138
KW96 131835Z AUTO 23008G16KT 10SM CLR 01/M15 A2984 RMK AO1 T00081148